sensor_id;sensor_type;location;lat;lon;timestamp;P1;durP1;ratioP1;P2;durP2;ratioP2
12689;SDS011;6409;56.294;14.480;2023-02-19T00:00:11;1.47;;;0.63;;
12689;SDS011;6409;56.294;14.480;2023-02-19T00:02:40;7.10;;;1.27;;
12689;SDS011;6409;56.294;14.480;2023-02-19T00:05:09;1.97;;;1.63;;
12689;SDS011;6409;56.294;14.480;2023-02-19T00:07:36;2.17;;;1.57;;
12689;SDS011;6409;56.294;14.480;2023-02-19T00:10:03;0.90;;;0.90;;
12689;SDS011;6409;56.294;14.480;2023-02-19T00:12:30;7.23;;;1.40;;
12689;SDS011;6409;56.294;14.480;2023-02-19T00:14:57;0.57;;;0.57;;
12689;SDS011;6409;56.294;14.480;2023-02-19T00:17:25;4.23;;;0.80;;
12689;SDS011;6409;56.294;14.480;2023-02-19T00:19:52;1.33;;;1.33;;
12689;SDS011;6409;56.294;14.480;2023-02-19T00:22:19;0.63;;;0.63;;
12689;SDS011;6409;56.294;14.480;2023-02-19T00:24:46;0.60;;;0.60;;
12689;SDS011;6409;56.294;14.480;2023-02-19T00:27:13;1.00;;;1.00;;
12689;SDS011;6409;56.294;14.480;2023-02-19T00:29:40;0.60;;;0.60;;
12689;SDS011;6409;56.294;14.480;2023-02-19T00:32:07;6.63;;;0.97;;
12689;SDS011;6409;56.294;14.480;2023-02-19T00:34:36;0.60;;;0.60;;
12689;SDS011;6409;56.294;14.480;2023-02-19T00:37:03;1.17;;;1.17;;
12689;SDS011;6409;56.294;14.480;2023-02-19T00:39:30;0.60;;;0.60;;
12689;SDS011;6409;56.294;14.480;2023-02-19T00:41:57;5.60;;;0.93;;
12689;SDS011;6409;56.294;14.480;2023-02-19T00:44:24;0.60;;;0.60;;
12689;SDS011;6409;56.294;14.480;2023-02-19T00:46:51;2.83;;;1.00;;
12689;SDS011;6409;56.294;14.480;2023-02-19T00:49:19;5.00;;;0.80;;
12689;SDS011;6409;56.294;14.480;2023-02-19T00:51:49;0.50;;;0.50;;
12689;SDS011;6409;56.294;14.480;2023-02-19T00:54:17;5.50;;;0.70;;
12689;SDS011;6409;56.294;14.480;2023-02-19T00:56:44;0.60;;;0.60;;
12689;SDS011;6409;56.294;14.480;2023-02-19T00:59:11;2.03;;;0.80;;
12689;SDS011;6409;56.294;14.480;2023-02-19T01:01:38;0.53;;;0.53;;
12689;SDS011;6409;56.294;14.480;2023-02-19T01:04:05;0.77;;;0.77;;
12689;SDS011;6409;56.294;14.480;2023-02-19T01:06:32;0.83;;;0.80;;
12689;SDS011;6409;56.294;14.480;2023-02-19T01:09:01;0.80;;;0.80;;
12689;SDS011;6409;56.294;14.480;2023-02-19T01:11:28;6.63;;;0.70;;
12689;SDS011;6409;56.294;14.480;2023-02-19T01:13:56;0.60;;;0.60;;
12689;SDS011;6409;56.294;14.480;2023-02-19T01:16:23;2.07;;;0.90;;
12689;SDS011;6409;56.294;14.480;2023-02-19T01:18:51;0.67;;;0.67;;
12689;SDS011;6409;56.294;14.480;2023-02-19T01:21:19;0.83;;;0.83;;
12689;SDS011;6409;56.294;14.480;2023-02-19T01:23:47;1.23;;;1.13;;
12689;SDS011;6409;56.294;14.480;2023-02-19T01:26:16;0.50;;;0.50;;
12689;SDS011;6409;56.294;14.480;2023-02-19T01:28:45;8.07;;;0.83;;
12689;SDS011;6409;56.294;14.480;2023-02-19T01:31:13;1.27;;;1.00;;
12689;SDS011;6409;56.294;14.480;2023-02-19T01:33:42;3.90;;;0.80;;
12689;SDS011;6409;56.294;14.480;2023-02-19T01:36:11;0.60;;;0.60;;
12689;SDS011;6409;56.294;14.480;2023-02-19T01:38:38;0.57;;;0.57;;
12689;SDS011;6409;56.294;14.480;2023-02-19T01:41:06;1.20;;;1.10;;
12689;SDS011;6409;56.294;14.480;2023-02-19T01:46:24;0.80;;;0.80;;
12689;SDS011;6409;56.294;14.480;2023-02-19T01:48:52;0.63;;;0.63;;
12689;SDS011;6409;56.294;14.480;2023-02-19T01:51:19;0.60;;;0.60;;
12689;SDS011;6409;56.294;14.480;2023-02-19T01:53:48;0.70;;;0.70;;
12689;SDS011;6409;56.294;14.480;2023-02-19T01:56:17;1.80;;;0.90;;
12689;SDS011;6409;56.294;14.480;2023-02-19T01:58:45;0.63;;;0.63;;
12689;SDS011;6409;56.294;14.480;2023-02-19T02:01:14;0.50;;;0.50;;
12689;SDS011;6409;56.294;14.480;2023-02-19T02:03:41;0.50;;;0.50;;
12689;SDS011;6409;56.294;14.480;2023-02-19T02:06:10;0.73;;;0.73;;
12689;SDS011;6409;56.294;14.480;2023-02-19T02:08:41;1.50;;;0.93;;
12689;SDS011;6409;56.294;14.480;2023-02-19T02:11:25;0.73;;;0.73;;
12689;SDS011;6409;56.294;14.480;2023-02-19T02:13:53;0.53;;;0.53;;
12689;SDS011;6409;56.294;14.480;2023-02-19T02:16:23;0.73;;;0.73;;
12689;SDS011;6409;56.294;14.480;2023-02-19T02:18:58;0.50;;;0.50;;
12689;SDS011;6409;56.294;14.480;2023-02-19T02:21:44;0.60;;;0.60;;
12689;SDS011;6409;56.294;14.480;2023-02-19T02:24:24;0.53;;;0.53;;
12689;SDS011;6409;56.294;14.480;2023-02-19T02:27:17;3.70;;;0.90;;
12689;SDS011;6409;56.294;14.480;2023-02-19T02:30:08;0.70;;;0.70;;
12689;SDS011;6409;56.294;14.480;2023-02-19T02:32:59;0.93;;;0.93;;
12689;SDS011;6409;56.294;14.480;2023-02-19T02:35:30;0.47;;;0.47;;
12689;SDS011;6409;56.294;14.480;2023-02-19T02:37:59;2.00;;;0.77;;
12689;SDS011;6409;56.294;14.480;2023-02-19T02:40:28;0.80;;;0.80;;
12689;SDS011;6409;56.294;14.480;2023-02-19T02:42:56;0.53;;;0.53;;
12689;SDS011;6409;56.294;14.480;2023-02-19T02:45:26;0.93;;;0.87;;
12689;SDS011;6409;56.294;14.480;2023-02-19T02:48:01;0.70;;;0.70;;
12689;SDS011;6409;56.294;14.480;2023-02-19T02:50:33;0.60;;;0.60;;
12689;SDS011;6409;56.294;14.480;2023-02-19T02:53:04;0.50;;;0.50;;
12689;SDS011;6409;56.294;14.480;2023-02-19T02:55:51;3.83;;;1.50;;
12689;SDS011;6409;56.294;14.480;2023-02-19T02:58:18;1.60;;;1.00;;
12689;SDS011;6409;56.294;14.480;2023-02-19T03:00:50;0.53;;;0.53;;
12689;SDS011;6409;56.294;14.480;2023-02-19T03:03:38;3.70;;;0.60;;
12689;SDS011;6409;56.294;14.480;2023-02-19T03:06:06;0.73;;;0.73;;
12689;SDS011;6409;56.294;14.480;2023-02-19T03:08:35;3.10;;;1.00;;
12689;SDS011;6409;56.294;14.480;2023-02-19T03:11:04;0.97;;;0.63;;
12689;SDS011;6409;56.294;14.480;2023-02-19T03:13:47;2.40;;;0.60;;
12689;SDS011;6409;56.294;14.480;2023-02-19T03:16:35;0.60;;;0.60;;
12689;SDS011;6409;56.294;14.480;2023-02-19T03:19:21;0.87;;;0.87;;
12689;SDS011;6409;56.294;14.480;2023-02-19T03:21:51;0.60;;;0.60;;
12689;SDS011;6409;56.294;14.480;2023-02-19T03:24:21;2.43;;;1.63;;
12689;SDS011;6409;56.294;14.480;2023-02-19T03:27:08;0.50;;;0.50;;
12689;SDS011;6409;56.294;14.480;2023-02-19T03:29:36;0.60;;;0.60;;
12689;SDS011;6409;56.294;14.480;2023-02-19T03:32:07;5.93;;;1.13;;
12689;SDS011;6409;56.294;14.480;2023-02-19T03:34:37;0.60;;;0.60;;
12689;SDS011;6409;56.294;14.480;2023-02-19T03:37:08;0.67;;;0.67;;
12689;SDS011;6409;56.294;14.480;2023-02-19T03:39:36;0.60;;;0.60;;
12689;SDS011;6409;56.294;14.480;2023-02-19T03:42:10;0.80;;;0.80;;
12689;SDS011;6409;56.294;14.480;2023-02-19T03:44:44;0.80;;;0.80;;
12689;SDS011;6409;56.294;14.480;2023-02-19T03:47:16;0.67;;;0.67;;
12689;SDS011;6409;56.294;14.480;2023-02-19T03:49:47;0.80;;;0.80;;
12689;SDS011;6409;56.294;14.480;2023-02-19T03:52:16;1.50;;;0.73;;
12689;SDS011;6409;56.294;14.480;2023-02-19T03:54:46;0.70;;;0.70;;
12689;SDS011;6409;56.294;14.480;2023-02-19T03:57:20;12.07;;;1.10;;
12689;SDS011;6409;56.294;14.480;2023-02-19T03:59:51;0.50;;;0.50;;
12689;SDS011;6409;56.294;14.480;2023-02-19T04:02:25;1.30;;;0.87;;
12689;SDS011;6409;56.294;14.480;2023-02-19T04:04:55;0.67;;;0.67;;
12689;SDS011;6409;56.294;14.480;2023-02-19T04:07:25;0.60;;;0.60;;
12689;SDS011;6409;56.294;14.480;2023-02-19T04:09:53;7.70;;;1.07;;
12689;SDS011;6409;56.294;14.480;2023-02-19T04:12:20;0.90;;;0.90;;
12689;SDS011;6409;56.294;14.480;2023-02-19T04:14:49;0.50;;;0.50;;
12689;SDS011;6409;56.294;14.480;2023-02-19T04:17:19;7.20;;;0.70;;
12689;SDS011;6409;56.294;14.480;2023-02-19T04:19:49;0.50;;;0.50;;
12689;SDS011;6409;56.294;14.480;2023-02-19T04:22:16;0.60;;;0.60;;
12689;SDS011;6409;56.294;14.480;2023-02-19T04:24:45;0.50;;;0.50;;
12689;SDS011;6409;56.294;14.480;2023-02-19T04:27:14;1.47;;;0.43;;
12689;SDS011;6409;56.294;14.480;2023-02-19T04:29:41;0.70;;;0.70;;
12689;SDS011;6409;56.294;14.480;2023-02-19T04:32:08;4.10;;;0.70;;
12689;SDS011;6409;56.294;14.480;2023-02-19T04:34:35;5.33;;;0.60;;
12689;SDS011;6409;56.294;14.480;2023-02-19T04:37:04;0.67;;;0.67;;
12689;SDS011;6409;56.294;14.480;2023-02-19T04:39:31;0.63;;;0.57;;
12689;SDS011;6409;56.294;14.480;2023-02-19T04:41:58;0.50;;;0.50;;
12689;SDS011;6409;56.294;14.480;2023-02-19T04:44:25;0.60;;;0.60;;
12689;SDS011;6409;56.294;14.480;2023-02-19T04:46:52;0.50;;;0.50;;
12689;SDS011;6409;56.294;14.480;2023-02-19T04:49:19;0.87;;;0.87;;
12689;SDS011;6409;56.294;14.480;2023-02-19T04:51:46;0.57;;;0.57;;
12689;SDS011;6409;56.294;14.480;2023-02-19T04:54:14;0.60;;;0.60;;
12689;SDS011;6409;56.294;14.480;2023-02-19T04:56:41;2.70;;;0.90;;
12689;SDS011;6409;56.294;14.480;2023-02-19T04:59:08;0.60;;;0.60;;
12689;SDS011;6409;56.294;14.480;2023-02-19T05:01:35;2.07;;;1.03;;
12689;SDS011;6409;56.294;14.480;2023-02-19T05:04:02;1.33;;;0.87;;
12689;SDS011;6409;56.294;14.480;2023-02-19T05:06:29;0.60;;;0.60;;
12689;SDS011;6409;56.294;14.480;2023-02-19T05:08:56;0.70;;;0.70;;
12689;SDS011;6409;56.294;14.480;2023-02-19T05:11:24;0.57;;;0.57;;
12689;SDS011;6409;56.294;14.480;2023-02-19T05:13:51;0.93;;;0.90;;
12689;SDS011;6409;56.294;14.480;2023-02-19T05:16:20;0.83;;;0.83;;
12689;SDS011;6409;56.294;14.480;2023-02-19T05:18:48;0.60;;;0.60;;
12689;SDS011;6409;56.294;14.480;2023-02-19T05:21:15;0.60;;;0.60;;
12689;SDS011;6409;56.294;14.480;2023-02-19T05:23:42;4.90;;;1.10;;
12689;SDS011;6409;56.294;14.480;2023-02-19T05:26:10;0.70;;;0.70;;
12689;SDS011;6409;56.294;14.480;2023-02-19T05:28:42;0.73;;;0.73;;
12689;SDS011;6409;56.294;14.480;2023-02-19T05:31:09;0.50;;;0.50;;
12689;SDS011;6409;56.294;14.480;2023-02-19T05:33:36;0.60;;;0.60;;
12689;SDS011;6409;56.294;14.480;2023-02-19T05:36:04;0.70;;;0.70;;
12689;SDS011;6409;56.294;14.480;2023-02-19T05:38:32;2.87;;;0.97;;
12689;SDS011;6409;56.294;14.480;2023-02-19T05:41:06;0.70;;;0.70;;
12689;SDS011;6409;56.294;14.480;2023-02-19T05:43:33;0.60;;;0.60;;
12689;SDS011;6409;56.294;14.480;2023-02-19T05:46:01;0.53;;;0.53;;
12689;SDS011;6409;56.294;14.480;2023-02-19T05:48:28;0.50;;;0.50;;
12689;SDS011;6409;56.294;14.480;2023-02-19T05:50:59;0.50;;;0.50;;
12689;SDS011;6409;56.294;14.480;2023-02-19T05:53:27;0.77;;;0.50;;
12689;SDS011;6409;56.294;14.480;2023-02-19T05:55:54;1.43;;;0.77;;
12689;SDS011;6409;56.294;14.480;2023-02-19T05:58:20;0.60;;;0.60;;
12689;SDS011;6409;56.294;14.480;2023-02-19T06:00:47;0.50;;;0.50;;
12689;SDS011;6409;56.294;14.480;2023-02-19T06:03:16;0.50;;;0.50;;
12689;SDS011;6409;56.294;14.480;2023-02-19T06:05:43;1.13;;;1.03;;
12689;SDS011;6409;56.294;14.480;2023-02-19T06:08:10;0.93;;;0.93;;
12689;SDS011;6409;56.294;14.480;2023-02-19T06:10:38;0.53;;;0.53;;
12689;SDS011;6409;56.294;14.480;2023-02-19T06:13:06;0.50;;;0.50;;
12689;SDS011;6409;56.294;14.480;2023-02-19T06:15:33;0.50;;;0.50;;
12689;SDS011;6409;56.294;14.480;2023-02-19T06:18:00;1.53;;;1.13;;
12689;SDS011;6409;56.294;14.480;2023-02-19T06:20:28;0.50;;;0.50;;
12689;SDS011;6409;56.294;14.480;2023-02-19T06:22:55;0.77;;;0.70;;
12689;SDS011;6409;56.294;14.480;2023-02-19T06:25:22;0.70;;;0.70;;
12689;SDS011;6409;56.294;14.480;2023-02-19T06:27:49;0.40;;;0.40;;
12689;SDS011;6409;56.294;14.480;2023-02-19T06:30:16;2.10;;;1.13;;
12689;SDS011;6409;56.294;14.480;2023-02-19T06:32:43;0.40;;;0.40;;
12689;SDS011;6409;56.294;14.480;2023-02-19T06:35:10;0.50;;;0.50;;
12689;SDS011;6409;56.294;14.480;2023-02-19T06:37:38;1.30;;;0.97;;
12689;SDS011;6409;56.294;14.480;2023-02-19T06:40:05;1.87;;;0.57;;
12689;SDS011;6409;56.294;14.480;2023-02-19T06:42:33;0.50;;;0.50;;
12689;SDS011;6409;56.294;14.480;2023-02-19T06:44:59;0.70;;;0.70;;
12689;SDS011;6409;56.294;14.480;2023-02-19T06:47:29;0.50;;;0.50;;
12689;SDS011;6409;56.294;14.480;2023-02-19T06:49:57;0.50;;;0.50;;
12689;SDS011;6409;56.294;14.480;2023-02-19T06:52:23;0.50;;;0.50;;
12689;SDS011;6409;56.294;14.480;2023-02-19T06:54:52;0.67;;;0.67;;
12689;SDS011;6409;56.294;14.480;2023-02-19T06:57:19;0.60;;;0.60;;
12689;SDS011;6409;56.294;14.480;2023-02-19T06:59:46;0.60;;;0.60;;
12689;SDS011;6409;56.294;14.480;2023-02-19T07:02:13;0.70;;;0.70;;
12689;SDS011;6409;56.294;14.480;2023-02-19T07:04:39;0.70;;;0.70;;
12689;SDS011;6409;56.294;14.480;2023-02-19T07:07:09;0.60;;;0.60;;
12689;SDS011;6409;56.294;14.480;2023-02-19T07:09:36;0.70;;;0.70;;
12689;SDS011;6409;56.294;14.480;2023-02-19T07:12:04;0.60;;;0.60;;
12689;SDS011;6409;56.294;14.480;2023-02-19T07:14:31;1.17;;;1.17;;
12689;SDS011;6409;56.294;14.480;2023-02-19T07:16:58;0.80;;;0.80;;
12689;SDS011;6409;56.294;14.480;2023-02-19T07:19:25;0.90;;;0.90;;
12689;SDS011;6409;56.294;14.480;2023-02-19T07:21:52;0.70;;;0.70;;
12689;SDS011;6409;56.294;14.480;2023-02-19T07:24:19;1.17;;;1.07;;
12689;SDS011;6409;56.294;14.480;2023-02-19T07:26:46;0.87;;;0.87;;
12689;SDS011;6409;56.294;14.480;2023-02-19T07:29:15;0.80;;;0.80;;
12689;SDS011;6409;56.294;14.480;2023-02-19T07:31:42;5.53;;;1.13;;
12689;SDS011;6409;56.294;14.480;2023-02-19T07:34:09;1.33;;;1.23;;
12689;SDS011;6409;56.294;14.480;2023-02-19T07:36:36;0.97;;;0.97;;
12689;SDS011;6409;56.294;14.480;2023-02-19T07:39:03;2.73;;;1.27;;
12689;SDS011;6409;56.294;14.480;2023-02-19T07:41:30;1.20;;;1.20;;
12689;SDS011;6409;56.294;14.480;2023-02-19T07:43:57;1.40;;;1.40;;
12689;SDS011;6409;56.294;14.480;2023-02-19T07:46:25;1.20;;;1.20;;
12689;SDS011;6409;56.294;14.480;2023-02-19T07:48:54;3.00;;;2.00;;
12689;SDS011;6409;56.294;14.480;2023-02-19T07:51:21;1.80;;;1.77;;
12689;SDS011;6409;56.294;14.480;2023-02-19T07:53:48;1.50;;;1.50;;
12689;SDS011;6409;56.294;14.480;2023-02-19T07:56:15;1.60;;;1.60;;
12689;SDS011;6409;56.294;14.480;2023-02-19T07:58:43;1.50;;;1.50;;
12689;SDS011;6409;56.294;14.480;2023-02-19T08:01:12;1.47;;;1.47;;
12689;SDS011;6409;56.294;14.480;2023-02-19T08:03:42;1.73;;;1.70;;
12689;SDS011;6409;56.294;14.480;2023-02-19T08:06:08;2.10;;;1.67;;
12689;SDS011;6409;56.294;14.480;2023-02-19T08:08:36;1.90;;;1.90;;
12689;SDS011;6409;56.294;14.480;2023-02-19T08:11:04;2.17;;;2.07;;
12689;SDS011;6409;56.294;14.480;2023-02-19T08:13:49;3.90;;;2.67;;
12689;SDS011;6409;56.294;14.480;2023-02-19T08:16:16;2.43;;;2.23;;
12689;SDS011;6409;56.294;14.480;2023-02-19T08:18:46;2.20;;;2.10;;
12689;SDS011;6409;56.294;14.480;2023-02-19T08:21:13;1.97;;;1.97;;
12689;SDS011;6409;56.294;14.480;2023-02-19T08:23:42;2.40;;;2.30;;
12689;SDS011;6409;56.294;14.480;2023-02-19T08:26:10;2.37;;;2.27;;
12689;SDS011;6409;56.294;14.480;2023-02-19T08:28:37;3.33;;;2.10;;
12689;SDS011;6409;56.294;14.480;2023-02-19T08:31:05;2.23;;;2.13;;
12689;SDS011;6409;56.294;14.480;2023-02-19T08:33:33;2.30;;;2.20;;
12689;SDS011;6409;56.294;14.480;2023-02-19T08:36:02;2.57;;;2.40;;
12689;SDS011;6409;56.294;14.480;2023-02-19T08:38:30;2.60;;;2.50;;
12689;SDS011;6409;56.294;14.480;2023-02-19T08:40:58;2.50;;;2.40;;
12689;SDS011;6409;56.294;14.480;2023-02-19T08:43:24;2.60;;;2.50;;
12689;SDS011;6409;56.294;14.480;2023-02-19T08:45:52;3.47;;;3.17;;
12689;SDS011;6409;56.294;14.480;2023-02-19T08:48:20;2.63;;;2.53;;
12689;SDS011;6409;56.294;14.480;2023-02-19T08:50:52;2.83;;;2.73;;
12689;SDS011;6409;56.294;14.480;2023-02-19T08:53:21;2.70;;;2.60;;
12689;SDS011;6409;56.294;14.480;2023-02-19T08:55:48;2.47;;;2.37;;
12689;SDS011;6409;56.294;14.480;2023-02-19T08:58:15;2.97;;;2.80;;
12689;SDS011;6409;56.294;14.480;2023-02-19T09:00:42;2.77;;;2.67;;
12689;SDS011;6409;56.294;14.480;2023-02-19T09:03:09;5.53;;;3.47;;
12689;SDS011;6409;56.294;14.480;2023-02-19T09:05:36;3.20;;;3.07;;
12689;SDS011;6409;56.294;14.480;2023-02-19T09:08:03;3.00;;;2.90;;
12689;SDS011;6409;56.294;14.480;2023-02-19T09:10:31;3.70;;;3.10;;
12689;SDS011;6409;56.294;14.480;2023-02-19T09:12:58;4.90;;;3.33;;
12689;SDS011;6409;56.294;14.480;2023-02-19T09:15:26;3.20;;;3.10;;
12689;SDS011;6409;56.294;14.480;2023-02-19T09:17:53;3.83;;;3.57;;
12689;SDS011;6409;56.294;14.480;2023-02-19T09:20:20;3.23;;;3.13;;
12689;SDS011;6409;56.294;14.480;2023-02-19T09:22:47;3.33;;;3.17;;
12689;SDS011;6409;56.294;14.480;2023-02-19T09:25:14;3.27;;;3.17;;
12689;SDS011;6409;56.294;14.480;2023-02-19T09:27:42;3.73;;;3.53;;
12689;SDS011;6409;56.294;14.480;2023-02-19T09:30:09;3.60;;;3.40;;
12689;SDS011;6409;56.294;14.480;2023-02-19T09:32:36;4.30;;;3.70;;
12689;SDS011;6409;56.294;14.480;2023-02-19T09:35:03;3.40;;;3.30;;
12689;SDS011;6409;56.294;14.480;2023-02-19T09:37:31;3.93;;;3.63;;
12689;SDS011;6409;56.294;14.480;2023-02-19T09:39:57;3.70;;;3.50;;
12689;SDS011;6409;56.294;14.480;2023-02-19T09:42:25;3.67;;;3.40;;
12689;SDS011;6409;56.294;14.480;2023-02-19T09:44:56;3.40;;;3.30;;
12689;SDS011;6409;56.294;14.480;2023-02-19T09:47:24;3.60;;;3.50;;
12689;SDS011;6409;56.294;14.480;2023-02-19T09:49:53;4.20;;;3.90;;
12689;SDS011;6409;56.294;14.480;2023-02-19T09:52:23;3.87;;;3.77;;
12689;SDS011;6409;56.294;14.480;2023-02-19T09:54:53;4.33;;;3.90;;
12689;SDS011;6409;56.294;14.480;2023-02-19T09:57:23;4.03;;;3.90;;
12689;SDS011;6409;56.294;14.480;2023-02-19T09:59:52;3.70;;;3.60;;
12689;SDS011;6409;56.294;14.480;2023-02-19T10:02:24;4.63;;;4.33;;
12689;SDS011;6409;56.294;14.480;2023-02-19T10:04:51;4.07;;;3.97;;
12689;SDS011;6409;56.294;14.480;2023-02-19T10:07:19;4.30;;;4.10;;
12689;SDS011;6409;56.294;14.480;2023-02-19T10:09:50;4.40;;;4.10;;
12689;SDS011;6409;56.294;14.480;2023-02-19T10:12:21;4.10;;;4.00;;
12689;SDS011;6409;56.294;14.480;2023-02-19T10:14:51;4.10;;;4.00;;
12689;SDS011;6409;56.294;14.480;2023-02-19T10:17:22;4.27;;;4.10;;
12689;SDS011;6409;56.294;14.480;2023-02-19T10:19:50;4.30;;;4.10;;
12689;SDS011;6409;56.294;14.480;2023-02-19T10:22:17;4.77;;;4.57;;
12689;SDS011;6409;56.294;14.480;2023-02-19T10:24:45;4.80;;;4.60;;
12689;SDS011;6409;56.294;14.480;2023-02-19T10:27:15;4.40;;;4.20;;
12689;SDS011;6409;56.294;14.480;2023-02-19T10:29:43;4.00;;;3.90;;
12689;SDS011;6409;56.294;14.480;2023-02-19T10:32:13;4.30;;;4.10;;
12689;SDS011;6409;56.294;14.480;2023-02-19T10:34:44;4.40;;;4.20;;
12689;SDS011;6409;56.294;14.480;2023-02-19T10:37:11;4.40;;;4.20;;
12689;SDS011;6409;56.294;14.480;2023-02-19T10:39:40;4.70;;;4.50;;
12689;SDS011;6409;56.294;14.480;2023-02-19T10:42:18;4.77;;;4.57;;
12689;SDS011;6409;56.294;14.480;2023-02-19T10:44:47;4.80;;;4.60;;
12689;SDS011;6409;56.294;14.480;2023-02-19T10:47:17;4.60;;;4.40;;
12689;SDS011;6409;56.294;14.480;2023-02-19T10:49:47;4.70;;;4.50;;
12689;SDS011;6409;56.294;14.480;2023-02-19T10:52:15;5.00;;;4.70;;
12689;SDS011;6409;56.294;14.480;2023-02-19T10:54:45;4.80;;;4.60;;
12689;SDS011;6409;56.294;14.480;2023-02-19T10:57:22;5.00;;;4.80;;
12689;SDS011;6409;56.294;14.480;2023-02-19T10:59:54;4.90;;;4.70;;
12689;SDS011;6409;56.294;14.480;2023-02-19T11:02:22;4.80;;;4.60;;
12689;SDS011;6409;56.294;14.480;2023-02-19T11:05:05;5.40;;;5.20;;
12689;SDS011;6409;56.294;14.480;2023-02-19T11:07:46;5.53;;;5.33;;
12689;SDS011;6409;56.294;14.480;2023-02-19T11:10:20;5.60;;;5.40;;
12689;SDS011;6409;56.294;14.480;2023-02-19T11:12:54;5.93;;;5.67;;
12689;SDS011;6409;56.294;14.480;2023-02-19T11:15:24;5.70;;;5.50;;
12689;SDS011;6409;56.294;14.480;2023-02-19T11:17:53;6.03;;;5.73;;
12689;SDS011;6409;56.294;14.480;2023-02-19T11:20:23;5.20;;;5.00;;
12689;SDS011;6409;56.294;14.480;2023-02-19T11:22:50;5.90;;;5.70;;
12689;SDS011;6409;56.294;14.480;2023-02-19T11:25:18;5.50;;;5.30;;
12689;SDS011;6409;56.294;14.480;2023-02-19T11:27:53;5.40;;;5.20;;
12689;SDS011;6409;56.294;14.480;2023-02-19T11:33:19;5.97;;;5.73;;
12689;SDS011;6409;56.294;14.480;2023-02-19T11:35:51;5.30;;;5.10;;
12689;SDS011;6409;56.294;14.480;2023-02-19T11:38:20;5.40;;;5.20;;
12689;SDS011;6409;56.294;14.480;2023-02-19T11:40:49;5.30;;;5.10;;
12689;SDS011;6409;56.294;14.480;2023-02-19T11:43:23;5.00;;;4.80;;
12689;SDS011;6409;56.294;14.480;2023-02-19T11:46:00;4.73;;;4.53;;
12689;SDS011;6409;56.294;14.480;2023-02-19T11:48:34;4.63;;;4.43;;
12689;SDS011;6409;56.294;14.480;2023-02-19T11:51:15;5.00;;;4.80;;
12689;SDS011;6409;56.294;14.480;2023-02-19T11:53:49;5.37;;;5.07;;
12689;SDS011;6409;56.294;14.480;2023-02-19T11:56:23;5.53;;;5.27;;
12689;SDS011;6409;56.294;14.480;2023-02-19T11:58:58;5.50;;;5.30;;
12689;SDS011;6409;56.294;14.480;2023-02-19T12:04:40;5.40;;;5.20;;
12689;SDS011;6409;56.294;14.480;2023-02-19T12:10:44;4.90;;;4.70;;
12689;SDS011;6409;56.294;14.480;2023-02-19T12:13:19;4.67;;;4.47;;
12689;SDS011;6409;56.294;14.480;2023-02-19T12:15:52;4.50;;;4.30;;
12689;SDS011;6409;56.294;14.480;2023-02-19T12:18:28;4.60;;;4.40;;
12689;SDS011;6409;56.294;14.480;2023-02-19T12:21:10;4.60;;;4.40;;
12689;SDS011;6409;56.294;14.480;2023-02-19T12:23:51;4.30;;;4.10;;
12689;SDS011;6409;56.294;14.480;2023-02-19T12:26:26;4.10;;;4.00;;
12689;SDS011;6409;56.294;14.480;2023-02-19T12:31:50;3.90;;;3.80;;
12689;SDS011;6409;56.294;14.480;2023-02-19T12:34:33;4.10;;;4.00;;
12689;SDS011;6409;56.294;14.480;2023-02-19T12:37:27;4.27;;;4.07;;
12689;SDS011;6409;56.294;14.480;2023-02-19T12:40:09;3.93;;;3.57;;
12689;SDS011;6409;56.294;14.480;2023-02-19T12:42:49;3.90;;;3.60;;
12689;SDS011;6409;56.294;14.480;2023-02-19T12:45:23;3.80;;;3.70;;
12689;SDS011;6409;56.294;14.480;2023-02-19T12:47:56;3.50;;;3.40;;
12689;SDS011;6409;56.294;14.480;2023-02-19T12:50:26;3.50;;;3.40;;
12689;SDS011;6409;56.294;14.480;2023-02-19T12:52:54;3.50;;;3.30;;
12689;SDS011;6409;56.294;14.480;2023-02-19T12:55:23;3.60;;;3.50;;
12689;SDS011;6409;56.294;14.480;2023-02-19T12:57:53;3.70;;;3.60;;
12689;SDS011;6409;56.294;14.480;2023-02-19T13:00:24;3.97;;;3.77;;
12689;SDS011;6409;56.294;14.480;2023-02-19T13:02:57;10.73;;;3.50;;
12689;SDS011;6409;56.294;14.480;2023-02-19T13:05:30;4.93;;;3.90;;
12689;SDS011;6409;56.294;14.480;2023-02-19T13:08:05;3.73;;;3.53;;
12689;SDS011;6409;56.294;14.480;2023-02-19T13:10:37;4.00;;;3.80;;
12689;SDS011;6409;56.294;14.480;2023-02-19T13:13:08;3.50;;;3.40;;
12689;SDS011;6409;56.294;14.480;2023-02-19T13:15:39;3.57;;;3.47;;
12689;SDS011;6409;56.294;14.480;2023-02-19T13:18:10;3.77;;;3.57;;
12689;SDS011;6409;56.294;14.480;2023-02-19T13:20:40;4.00;;;3.60;;
12689;SDS011;6409;56.294;14.480;2023-02-19T13:23:10;4.20;;;3.30;;
12689;SDS011;6409;56.294;14.480;2023-02-19T13:26:01;3.30;;;3.20;;
12689;SDS011;6409;56.294;14.480;2023-02-19T13:29:02;3.40;;;3.20;;
12689;SDS011;6409;56.294;14.480;2023-02-19T13:31:47;3.20;;;3.10;;
12689;SDS011;6409;56.294;14.480;2023-02-19T13:34:34;3.30;;;3.20;;
12689;SDS011;6409;56.294;14.480;2023-02-19T13:37:09;3.47;;;3.33;;
12689;SDS011;6409;56.294;14.480;2023-02-19T13:39:37;3.77;;;3.60;;
12689;SDS011;6409;56.294;14.480;2023-02-19T13:42:18;3.83;;;3.53;;
12689;SDS011;6409;56.294;14.480;2023-02-19T13:44:51;4.50;;;4.30;;
12689;SDS011;6409;56.294;14.480;2023-02-19T13:50:16;4.30;;;4.10;;
12689;SDS011;6409;56.294;14.480;2023-02-19T13:52:44;4.00;;;3.90;;
12689;SDS011;6409;56.294;14.480;2023-02-19T14:04:22;4.47;;;4.17;;
12689;SDS011;6409;56.294;14.480;2023-02-19T14:10:10;3.97;;;3.80;;
12689;SDS011;6409;56.294;14.480;2023-02-19T14:12:38;6.40;;;3.47;;
12689;SDS011;6409;56.294;14.480;2023-02-19T14:21:06;3.60;;;3.50;;
12689;SDS011;6409;56.294;14.480;2023-02-19T14:23:41;3.70;;;3.60;;
12689;SDS011;6409;56.294;14.480;2023-02-19T14:26:08;3.43;;;3.33;;
12689;SDS011;6409;56.294;14.480;2023-02-19T14:28:40;3.40;;;3.30;;
12689;SDS011;6409;56.294;14.480;2023-02-19T14:33:58;3.30;;;3.20;;
12689;SDS011;6409;56.294;14.480;2023-02-19T14:36:32;4.10;;;2.77;;
12689;SDS011;6409;56.294;14.480;2023-02-19T14:39:10;2.50;;;2.40;;
12689;SDS011;6409;56.294;14.480;2023-02-19T14:41:40;2.50;;;2.40;;
12689;SDS011;6409;56.294;14.480;2023-02-19T14:44:12;2.57;;;2.47;;
12689;SDS011;6409;56.294;14.480;2023-02-19T14:46:44;2.40;;;2.30;;
12689;SDS011;6409;56.294;14.480;2023-02-19T14:49:16;2.30;;;2.20;;
12689;SDS011;6409;56.294;14.480;2023-02-19T14:51:49;2.27;;;2.23;;
12689;SDS011;6409;56.294;14.480;2023-02-19T14:54:18;2.13;;;2.13;;
12689;SDS011;6409;56.294;14.480;2023-02-19T14:56:47;2.10;;;2.10;;
12689;SDS011;6409;56.294;14.480;2023-02-19T14:59:24;2.30;;;2.03;;
12689;SDS011;6409;56.294;14.480;2023-02-19T15:01:52;7.63;;;2.10;;
12689;SDS011;6409;56.294;14.480;2023-02-19T15:04:20;2.20;;;2.03;;
12689;SDS011;6409;56.294;14.480;2023-02-19T15:06:49;2.20;;;2.00;;
12689;SDS011;6409;56.294;14.480;2023-02-19T15:09:18;2.67;;;1.87;;
12689;SDS011;6409;56.294;14.480;2023-02-19T15:11:46;1.83;;;1.73;;
12689;SDS011;6409;56.294;14.480;2023-02-19T15:14:16;4.03;;;1.70;;
12689;SDS011;6409;56.294;14.480;2023-02-19T15:16:45;1.60;;;1.53;;
12689;SDS011;6409;56.294;14.480;2023-02-19T15:19:13;1.40;;;1.40;;
12689;SDS011;6409;56.294;14.480;2023-02-19T15:21:43;2.97;;;1.23;;
12689;SDS011;6409;56.294;14.480;2023-02-19T15:24:13;1.40;;;1.40;;
12689;SDS011;6409;56.294;14.480;2023-02-19T15:26:42;9.07;;;1.97;;
12689;SDS011;6409;56.294;14.480;2023-02-19T15:29:15;1.47;;;1.37;;
12689;SDS011;6409;56.294;14.480;2023-02-19T15:31:44;1.20;;;1.20;;
12689;SDS011;6409;56.294;14.480;2023-02-19T15:34:15;1.80;;;1.70;;
12689;SDS011;6409;56.294;14.480;2023-02-19T15:36:43;1.10;;;1.10;;
12689;SDS011;6409;56.294;14.480;2023-02-19T15:41:50;1.13;;;1.13;;
12689;SDS011;6409;56.294;14.480;2023-02-19T15:44:24;6.60;;;1.63;;
12689;SDS011;6409;56.294;14.480;2023-02-19T15:46:55;0.97;;;0.97;;